Terminal Aerodrome Forecast
Issued by NWS

Home | Current Version | Previous Version | Text Only | Print | Product List | Glossary On
Versions: 1 2 3 4 5 6 7 8 9 10 11 12 13 14 15 16 17 18 19 20 21 22 23
000
FTUS41 KRNK 171233 AAA
TAFBCB
TAF AMD
KBCB 171233Z 1713/1812 00000KT 4SM BR BKN002
     FM171400 VRB03KT P6SM SCT120
     FM171800 VRB03KT P6SM VCTS BKN050CB
     FM180000 00000KT P6SM BKN080
     FM180900 00000KT 3SM BR BKN250=

USA.gov is the U.S. government's official web portal to all federal, state and local government web resources and services.